Sally Bromfield — WDG4107 — position and weather

sailwx.info

Track history (hours):
 
Tides and Currents Weather Stations Pressure Air Temp Water Temp Dewpoint Dewpoint Depression Visibility Wind Speed Wind Dir Waves Ship Positions

Sally Bromfield

Owner: Ingram Barge Company LLC, Nashville, TN. More information available from US FCC via Universal Licensing System and Coast Guard Vessel Documentation Center.

Last reported at 2018-Jun-19 01:37 UTC. Time now 2018-Jun-22 13:31 UTC.
Position N 33°09' W 091°05'.

Length 55 m; draft 3 m.

Type: Towing. MMSI: 367533050.

Date/timePositionNaut miles runAvg speedWind from/ knotsBaromVisibWave heightAir tempDewpointWater temp
2018-Jun-19 01:37N 33°09' W 091°05'28 2.1
2018-Jun-18 12:21N 32°41' W 091°06'2 4.4
2018-Jun-18 12:00N 32°40' W 091°07'1 2.0
2018-Jun-18 11:22N 32°39' W 091°09'2 4.3
2018-Jun-18 11:01N 32°38' W 091°09'2 3.8
2018-Jun-18 10:30N 32°36' W 091°09'0 0.1
2018-Jun-18 06:01N 32°36' W 091°09'0 0.0
2018-Jun-18 05:57N 32°36' W 091°09'1 2.3
2018-Jun-18 05:30N 32°35' W 091°08'2 4.3
2018-Jun-18 05:00N 32°34' W 091°06'2 4.1
2018-Jun-18 04:31N 32°32' W 091°06'3 4.9
2018-Jun-18 04:00N 32°29' W 091°07'2 4.4
2018-Jun-18 03:30N 32°27' W 091°05'2 4.5
2018-Jun-18 03:01N 32°26' W 091°03'2 4.6
2018-Jun-18 02:31N 32°25' W 091°00'2 3.8
2018-Jun-18 02:00N 32°24' W 090°60'2 4.5
2018-Jun-18 01:31N 32°22' W 091°00'2 4.4
2018-Jun-18 01:00N 32°21' W 090°58'2 4.4
2018-Jun-18 00:31N 32°20' W 090°55'2 3.6
2018-Jun-18 00:01N 32°19' W 090°54'2 4.7
2018-Jun-17 23:31N 32°17' W 090°56'2 4.2
2018-Jun-17 23:00N 32°16' W 090°58'2 3.1
2018-Jun-17 22:31N 32°14' W 090°59'0 0.3
2018-Jun-17 22:01N 32°14' W 090°59'2 3.6
2018-Jun-17 21:31N 32°12' W 090°59'2 3.7
2018-Jun-17 21:00N 32°11' W 090°60'2 4.3
2018-Jun-17 20:30N 32°09' W 091°00'2 4.1
2018-Jun-17 20:01N 32°07' W 091°02'3 4.4
2018-Jun-17 19:23N 32°08' W 091°05'2 4.1
2018-Jun-17 19:01N 32°07' W 091°07'4 4.4
2018-Jun-17 18:12N 32°05' W 091°04'1 4.4
2018-Jun-17 18:00N 32°04' W 091°04'2 4.6
2018-Jun-17 17:31N 32°02' W 091°04'3 5.0
2018-Jun-17 16:59N 31°60' W 091°06'5 4.2
2018-Jun-17 15:51N 31°58' W 091°11'15 2.3
2018-Jun-17 09:21N 31°46' W 091°22'  
2018-Jun-13 06:06N 30°50' W 091°31'  
2018-Jun-10 18:36N 30°03' W 090°32'  
Track history (hours):
 
Tides and Currents Weather Stations Pressure Air Temp Water Temp Dewpoint Dewpoint Depression Visibility Wind Speed Wind Dir Waves Ship Positions

Sally Bromfield

Owner: Ingram Barge Company LLC, Nashville, TN. More information available from US FCC via Universal Licensing System and Coast Guard Vessel Documentation Center.

Last reported at 2018-Jun-19 01:37 UTC. Time now 2018-Jun-22 13:31 UTC.
Position N 33°09' W 091°05'.

Length 55 m; draft 3 m.

Type: Towing. MMSI: 367533050.

Date/timePositionNaut miles runAvg speedWind from/ knotsBaromVisibWave heightAir tempDewpointWater temp
2018-Jun-19 01:37N 33°09' W 091°05'28 2.1
2018-Jun-18 12:21N 32°41' W 091°06'2 4.4
2018-Jun-18 12:00N 32°40' W 091°07'1 2.0
2018-Jun-18 11:22N 32°39' W 091°09'2 4.3
2018-Jun-18 11:01N 32°38' W 091°09'2 3.8
2018-Jun-18 10:30N 32°36' W 091°09'0 0.1
2018-Jun-18 06:01N 32°36' W 091°09'0 0.0
2018-Jun-18 05:57N 32°36' W 091°09'1 2.3
2018-Jun-18 05:30N 32°35' W 091°08'2 4.3
2018-Jun-18 05:00N 32°34' W 091°06'2 4.1
2018-Jun-18 04:31N 32°32' W 091°06'3 4.9
2018-Jun-18 04:00N 32°29' W 091°07'2 4.4
2018-Jun-18 03:30N 32°27' W 091°05'2 4.5
2018-Jun-18 03:01N 32°26' W 091°03'2 4.6
2018-Jun-18 02:31N 32°25' W 091°00'2 3.8
2018-Jun-18 02:00N 32°24' W 090°60'2 4.5
2018-Jun-18 01:31N 32°22' W 091°00'2 4.4
2018-Jun-18 01:00N 32°21' W 090°58'2 4.4
2018-Jun-18 00:31N 32°20' W 090°55'2 3.6
2018-Jun-18 00:01N 32°19' W 090°54'2 4.7
2018-Jun-17 23:31N 32°17' W 090°56'2 4.2
2018-Jun-17 23:00N 32°16' W 090°58'2 3.1
2018-Jun-17 22:31N 32°14' W 090°59'0 0.3
2018-Jun-17 22:01N 32°14' W 090°59'2 3.6
2018-Jun-17 21:31N 32°12' W 090°59'2 3.7
2018-Jun-17 21:00N 32°11' W 090°60'2 4.3
2018-Jun-17 20:30N 32°09' W 091°00'2 4.1
2018-Jun-17 20:01N 32°07' W 091°02'3 4.4
2018-Jun-17 19:23N 32°08' W 091°05'2 4.1
2018-Jun-17 19:01N 32°07' W 091°07'4 4.4
2018-Jun-17 18:12N 32°05' W 091°04'1 4.4
2018-Jun-17 18:00N 32°04' W 091°04'2 4.6
2018-Jun-17 17:31N 32°02' W 091°04'3 5.0
2018-Jun-17 16:59N 31°60' W 091°06'5 4.2
2018-Jun-17 15:51N 31°58' W 091°11'15 2.3
2018-Jun-17 09:21N 31°46' W 091°22'  
2018-Jun-13 06:06N 30°50' W 091°31'  
2018-Jun-10 18:36N 30°03' W 090°32'  

Dump ship's entire track history